Time,TemperatureF,DewpointF,PressureIn,WindDirection,WindDirectionDegrees,WindSpeedMPH,WindSpeedGustMPH,Humidity,HourlyPrecipIn,Conditions,Clouds,dailyrainin,SoftwareType,DateUTC
2013-09-28 00:12:00,52.0,-99.9,-100.00,NW,314,2.0,5.0,-999,-99.99,,,-99.99,,2013-09-28 07:12:00,
2013-09-28 01:13:00,50.0,-99.9,-100.00,ENE,73,3.0,5.0,-999,-99.99,,,-99.99,,2013-09-28 08:13:00,
2013-09-28 02:12:00,51.0,-99.9,-100.00,ENE,57,2.0,3.0,-999,-99.99,,,-99.99,,2013-09-28 09:12:00,
2013-09-28 03:13:00,51.0,-99.9,-100.00,ENE,74,3.0,5.0,-999,-99.99,,,-99.99,,2013-09-28 10:13:00,
2013-09-28 04:12:00,51.0,-99.9,-100.00,ESE,113,3.0,3.0,-999,-99.99,,,-99.99,,2013-09-28 11:12:00,
2013-09-28 05:12:00,53.0,-99.9,-100.00,SSE,165,3.0,6.0,-999,-99.99,,,-99.99,,2013-09-28 12:12:00,
2013-09-28 06:12:00,54.0,-99.9,-100.00,ESE,105,3.0,8.0,-999,-99.99,,,-99.99,,2013-09-28 13:12:00,
2013-09-28 07:12:00,53.0,-99.9,-100.00,East,90,5.0,12.0,-999,-99.99,,,-99.99,,2013-09-28 14:12:00,
2013-09-28 08:12:00,53.0,-99.9,-100.00,SSE,150,5.0,7.0,-999,-99.99,,,-99.99,,2013-09-28 15:12:00,
2013-09-28 09:14:00,55.0,-99.9,-100.00,ESE,105,5.0,9.0,-999,-99.99,,,-99.99,,2013-09-28 16:14:00,
2013-09-28 10:13:00,60.0,-99.9,-100.00,SSE,159,13.0,22.0,-999,-99.99,,,-99.99,,2013-09-28 17:13:00,
2013-09-28 11:12:00,62.0,-99.9,-100.00,South,171,16.0,27.0,-999,-99.99,,,-99.99,,2013-09-28 18:12:00,
2013-09-28 12:12:00,66.0,-99.9,-100.00,South,190,25.0,38.0,-999,-99.99,,,-99.99,,2013-09-28 19:12:00,
2013-09-28 13:12:00,66.0,-99.9,-100.00,SSW,193,22.0,35.0,-999,-99.99,,,-99.99,,2013-09-28 20:12:00,
2013-09-28 14:12:00,69.0,-99.9,-100.00,SSW,199,24.0,38.0,-999,-99.99,,,-99.99,,2013-09-28 21:12:00,
2013-09-28 15:14:00,71.0,-99.9,-100.00,SSW,199,22.0,39.0,-999,-99.99,,,-99.99,,2013-09-28 22:14:00,
2013-09-28 16:13:00,69.0,-99.9,-100.00,SSW,212,20.0,33.0,-999,-99.99,,,-99.99,,2013-09-28 23:13:00,
2013-09-28 17:12:00,70.0,-99.9,-100.00,SSW,194,14.0,20.0,-999,-99.99,,,-99.99,,2013-09-29 00:12:00,
2013-09-28 18:12:00,71.0,-99.9,-100.00,SSW,196,18.0,29.0,-999,-99.99,,,-99.99,,2013-09-29 01:12:00,
2013-09-28 19:12:00,72.0,-99.9,-100.00,South,187,20.0,30.0,-999,-99.99,,,-99.99,,2013-09-29 02:12:00,
2013-09-28 20:12:00,71.0,-99.9,-100.00,SSW,196,15.0,24.0,-999,-99.99,,,-99.99,,2013-09-29 03:12:00,
2013-09-28 21:03:00,-999.0,-99.9,-100.00,SSW,198,16.0,31.0,-999,-99.99,,,-99.99,,2013-09-29 04:03:00,
2013-09-28 21:14:00,70.0,-99.9,-100.00,SSW,198,16.0,31.0,-999,-99.99,,,-99.99,,2013-09-29 04:14:00,
2013-09-28 22:14:00,69.0,-99.9,-100.00,SW,230,17.0,29.0,-999,-99.99,,,-99.99,,2013-09-29 05:14:00,
2013-09-28 23:13:00,59.0,-99.9,-100.00,WSW,242,18.0,29.0,-999,-99.99,,,-99.99,,2013-09-29 06:13:00,